Time;durP1;ratioP1;P1;durP2;ratioP2;P2;SDS_P1;SDS_P2;PMS_P1;PMS_P2;Temp;Humidity;BMP_temperature;BMP_pressure;BME280_temperature;BME280_humidity;BME280_pressure;Samples;Min_cycle;Max_cycle;Signal;HPM_P1;HPM_P2
2020/12/21 00:01:20;;;;;;;22.70;18.52;;;;;;;8.98;77.36;102344.03;5011413;28;20046;-60
2020/12/21 00:03:46;;;;;;;23.40;18.75;;;;;;;8.98;77.55;102340.56;5013683;28;20057;-60
2020/12/21 00:06:14;;;;;;;27.73;18.77;;;;;;;8.98;77.57;102341.41;5013607;28;20050;-60
2020/12/21 00:08:41;;;;;;;24.33;19.42;;;;;;;8.99;77.53;102351.00;5013509;28;20054;-60
2020/12/21 00:11:07;;;;;;;26.83;19.45;;;;;;;8.99;77.60;102352.78;5013530;28;20061;-60
2020/12/21 00:13:33;;;;;;;25.70;19.75;;;;;;;8.98;77.70;102356.28;5013416;28;20560;-62
2020/12/21 00:16:00;;;;;;;23.70;18.83;;;;;;;8.97;77.85;102344.91;5013381;28;20087;-62
2020/12/21 00:18:26;;;;;;;25.13;19.58;;;;;;;8.97;77.91;102342.31;5013598;28;20112;-62
2020/12/21 00:20:52;;;;;;;24.92;18.92;;;;;;;8.97;77.86;102330.97;5013418;28;20076;-62
2020/12/21 00:23:18;;;;;;;26.50;18.75;;;;;;;8.97;77.93;102333.59;5013505;28;20103;-63
2020/12/21 00:25:44;;;;;;;28.13;21.35;;;;;;;8.98;77.84;102335.34;5013297;28;20583;-63
2020/12/21 00:28:10;;;;;;;29.33;21.40;;;;;;;8.97;77.88;102329.22;5013174;28;20054;-62
2020/12/21 00:30:38;;;;;;;30.58;21.20;;;;;;;8.98;77.98;102328.31;5013164;28;20100;-62
2020/12/21 00:33:04;;;;;;;28.33;21.30;;;;;;;9.00;78.08;102325.66;5012892;28;20050;-62
2020/12/21 00:35:31;;;;;;;32.72;22.45;;;;;;;9.00;78.04;102317.81;5013170;28;20124;-63
2020/12/21 00:37:58;;;;;;;28.27;20.52;;;;;;;8.98;78.08;102323.09;5013056;28;20050;-62
2020/12/21 00:40:25;;;;;;;30.00;22.00;;;;;;;8.98;78.19;102314.38;5013093;28;20053;-62
2020/12/21 00:42:52;;;;;;;33.35;21.88;;;;;;;8.98;78.26;102312.63;5012861;28;20054;-62
2020/12/21 00:45:18;;;;;;;37.83;24.48;;;;;;;8.99;78.28;102313.50;5013034;28;20096;-62
2020/12/21 00:47:44;;;;;;;35.70;24.00;;;;;;;8.99;78.36;102313.50;5011014;28;20045;-62
2020/12/21 00:50:11;;;;;;;41.08;24.88;;;;;;;9.00;78.40;102315.19;5012866;28;20108;-63
2020/12/21 00:52:37;;;;;;;40.15;24.23;;;;;;;9.01;78.22;102316.91;5012818;28;20103;-62
2020/12/21 00:55:03;;;;;;;43.67;24.15;;;;;;;9.01;78.50;102316.06;5013067;28;20049;-63
2020/12/21 00:57:33;;;;;;;41.28;25.05;;;;;;;9.00;78.47;102309.94;5012795;28;20069;-63
2020/12/21 01:00:00;;;;;;;40.90;25.42;;;;;;;9.02;78.60;102317.78;5012628;28;20054;-62
2020/12/21 01:02:27;;;;;;;48.10;27.13;;;;;;;8.99;78.73;102314.34;5012633;28;20100;-63
2020/12/21 01:04:53;;;;;;;36.65;23.75;;;;;;;8.99;78.77;102316.97;5012466;28;20129;-63
2020/12/21 01:07:20;;;;;;;42.25;23.42;;;;;;;9.00;78.83;102312.56;5012570;28;20050;-62
2020/12/21 01:09:46;;;;;;;40.20;26.55;;;;;;;9.01;78.60;102319.53;5012708;28;20096;-62
2020/12/21 01:12:14;;;;;;;47.38;27.98;;;;;;;9.02;78.61;102328.25;5012654;28;20048;-62
2020/12/21 01:14:41;;;;;;;47.97;27.95;;;;;;;9.01;78.60;102327.38;5012571;28;20046;-63
2020/12/21 01:17:08;;;;;;;57.13;30.98;;;;;;;9.02;78.80;102329.09;5012382;28;20100;-62
2020/12/21 01:19:35;;;;;;;57.97;32.53;;;;;;;9.01;78.74;102330.00;5012905;28;20096;-62
2020/12/21 01:22:01;;;;;;;55.17;32.17;;;;;;;9.02;78.90;102328.25;5012547;28;20050;-63
2020/12/21 01:24:28;;;;;;;62.63;33.78;;;;;;;9.01;78.81;102330.00;5012540;28;20467;-63
2020/12/21 01:26:54;;;;;;;65.57;33.40;;;;;;;9.01;78.97;102323.91;5012391;28;20049;-63
2020/12/21 01:29:20;;;;;;;60.65;33.45;;;;;;;9.00;79.13;102320.41;5012582;28;20053;-62
2020/12/21 01:31:46;;;;;;;60.28;34.38;;;;;;;9.01;79.11;102322.16;5012385;28;20050;-60
2020/12/21 01:34:15;;;;;;;61.00;34.20;;;;;;;9.01;79.08;102332.63;5012175;28;20050;-60
2020/12/21 01:36:42;;;;;;;63.10;34.80;;;;;;;9.01;79.33;102331.78;5012369;28;20049;-60
2020/12/21 01:39:09;;;;;;;60.42;33.22;;;;;;;9.01;79.15;102342.25;5012130;28;20058;-60
2020/12/21 01:41:35;;;;;;;56.65;32.60;;;;;;;9.01;79.38;102342.25;5012343;28;20049;-60
2020/12/21 01:44:01;;;;;;;62.38;33.70;;;;;;;9.00;79.23;102346.59;5012163;28;20042;-60
2020/12/21 01:46:30;;;;;;;60.70;32.47;;;;;;;9.01;79.35;102348.34;5012465;28;20064;-60
2020/12/21 01:48:56;;;;;;;56.78;32.38;;;;;;;8.99;79.46;102340.53;5012116;28;20085;-60
2020/12/21 01:51:25;;;;;;;59.45;33.22;;;;;;;8.98;79.33;102332.72;5012016;28;20054;-60
2020/12/21 01:53:51;;;;;;;67.20;35.05;;;;;;;8.98;79.39;102336.19;5011960;28;20482;-60
2020/12/21 01:56:18;;;;;;;68.35;34.60;;;;;;;8.98;79.44;102333.56;5012355;28;20050;-60
2020/12/21 01:58:45;;;;;;;63.08;34.97;;;;;;;8.98;79.58;102330.94;5013847;28;20045;-60
2020/12/21 02:01:13;;;;;;;66.32;34.40;;;;;;;8.98;79.77;102328.31;5016014;28;20172;-60
2020/12/21 02:03:42;;;;;;;60.10;34.15;;;;;;;8.98;79.66;102323.09;5015953;28;20045;-60
2020/12/21 02:06:10;;;;;;;58.75;33.13;;;;;;;8.99;79.78;102329.19;5015756;28;20049;-60
2020/12/21 02:08:36;;;;;;;57.00;33.22;;;;;;;8.97;79.82;102323.97;5015879;28;20450;-60
2020/12/21 02:11:04;;;;;;;65.55;35.45;;;;;;;8.97;79.83;102330.97;5015592;28;20049;-60
2020/12/21 02:13:30;;;;;;;56.33;33.90;;;;;;;8.96;79.90;102327.53;5015733;28;20438;-60
2020/12/21 02:15:57;;;;;;;57.40;32.47;;;;;;;8.97;80.06;102330.97;5015608;28;20054;-60
2020/12/21 02:18:23;;;;;;;61.78;32.67;;;;;;;8.95;79.93;102325.78;5015559;28;20073;-60
2020/12/21 02:20:49;;;;;;;64.13;34.50;;;;;;;8.94;79.92;102325.84;5015523;28;20053;-60
2020/12/21 02:23:16;;;;;;;60.13;33.92;;;;;;;8.94;79.95;102337.16;5015751;28;20050;-60
2020/12/21 02:25:43;;;;;;;62.70;34.67;;;;;;;8.93;80.01;102334.59;5015654;28;20053;-60
2020/12/21 02:28:09;;;;;;;60.78;34.67;;;;;;;8.93;80.17;102348.53;5015392;28;20050;-60
2020/12/21 02:30:35;;;;;;;68.28;33.13;;;;;;;8.93;80.18;102348.53;5015447;28;20053;-60
2020/12/21 02:33:05;;;;;;;62.20;33.67;;;;;;;8.93;80.13;102345.06;5015343;28;20108;-60
2020/12/21 02:35:33;;;;;;;55.65;34.55;;;;;;;8.93;80.15;102347.66;5015356;28;20045;-60
2020/12/21 02:37:59;;;;;;;55.90;33.40;;;;;;;8.93;79.93;102351.13;5015202;28;20112;-60
2020/12/21 02:40:25;;;;;;;62.60;33.28;;;;;;;8.93;80.16;102347.66;5015137;28;20049;-60
2020/12/21 02:42:51;;;;;;;78.47;33.05;;;;;;;8.92;80.16;102349.41;5015304;28;20088;-60
2020/12/21 02:45:17;;;;;;;57.97;32.50;;;;;;;8.92;80.09;102351.19;5015217;28;20046;-60
2020/12/21 02:47:44;;;;;;;55.45;32.50;;;;;;;8.91;80.17;102349.44;5015074;28;20061;-59
2020/12/21 02:50:10;;;;;;;51.00;32.20;;;;;;;8.89;80.20;102346.00;5014780;28;20521;-60
2020/12/21 02:52:36;;;;;;;56.90;31.80;;;;;;;8.89;80.27;102346.88;5015031;28;20050;-60
2020/12/21 02:55:04;;;;;;;56.65;31.65;;;;;;;8.88;80.24;102352.16;5014928;28;20053;-60
2020/12/21 02:57:30;;;;;;;54.42;33.45;;;;;;;8.88;80.29;102346.91;5015155;28;20445;-60
2020/12/21 02:59:56;;;;;;;61.67;32.50;;;;;;;8.88;80.32;102345.16;5014699;28;20104;-60
2020/12/21 03:02:22;;;;;;;64.25;34.42;;;;;;;8.88;80.32;102350.38;5015102;28;20457;-60
2020/12/21 03:05:04;;;;;;;52.13;32.13;;;;;;;8.89;80.24;102349.50;5014731;28;20050;-60
2020/12/21 03:07:31;;;;;;;58.22;33.28;;;;;;;8.89;80.51;102346.88;5014994;28;20073;-60
2020/12/21 03:09:57;;;;;;;53.25;33.38;;;;;;;8.89;80.39;102352.13;5013511;28;20490;-60
2020/12/21 03:12:23;;;;;;;55.72;32.05;;;;;;;8.90;80.39;102348.59;5014689;28;20116;-60
2020/12/21 03:14:49;;;;;;;71.00;32.35;;;;;;;8.90;80.22;102345.09;5014514;28;20498;-60
2020/12/21 03:17:15;;;;;;;66.60;32.50;;;;;;;8.89;80.41;102341.66;5014803;28;20046;-60
2020/12/21 03:19:41;;;;;;;58.53;33.10;;;;;;;8.89;80.33;102344.25;5014711;28;20050;-60
2020/12/21 03:22:08;;;;;;;66.55;33.78;;;;;;;8.88;80.39;102331.22;5014345;28;20041;-60
2020/12/21 03:24:34;;;;;;;53.53;33.38;;;;;;;8.86;80.38;102323.38;5014464;28;20076;-60
2020/12/21 03:27:00;;;;;;;65.38;33.33;;;;;;;8.86;80.41;102325.16;5014293;28;20085;-60
2020/12/21 03:29:27;;;;;;;64.68;32.63;;;;;;;8.84;80.47;102325.19;5014339;28;20136;-60
2020/12/21 03:31:53;;;;;;;51.38;31.92;;;;;;;8.83;80.51;102319.06;5014698;28;20105;-60
2020/12/21 03:34:19;;;;;;;58.85;32.72;;;;;;;8.86;80.34;102314.69;5014372;28;20104;-60
2020/12/21 03:36:46;;;;;;;50.50;31.00;;;;;;;8.86;80.34;102310.28;5014104;28;20100;-60
2020/12/21 03:39:13;;;;;;;50.40;30.92;;;;;;;8.86;80.45;102318.13;5014059;28;20058;-60
2020/12/21 03:41:39;;;;;;;51.10;32.28;;;;;;;8.86;80.44;102314.69;5014102;28;20056;-60
2020/12/21 03:44:05;;;;;;;51.20;32.08;;;;;;;8.87;80.27;102313.78;5013982;28;20100;-60
2020/12/21 03:46:31;;;;;;;51.10;31.38;;;;;;;8.87;80.16;102317.25;5013983;28;20541;-60
2020/12/21 03:48:57;;;;;;;50.70;31.55;;;;;;;8.87;80.19;102316.41;5013912;28;20465;-60
2020/12/21 03:51:23;;;;;;;52.40;33.08;;;;;;;8.87;80.08;102314.63;5013799;28;20565;-60
2020/12/21 03:53:49;;;;;;;50.53;31.58;;;;;;;8.85;80.07;102326.91;5013908;28;20049;-60
2020/12/21 03:56:16;;;;;;;55.30;31.30;;;;;;;8.85;80.14;102337.38;5013690;28;20100;-60
2020/12/21 03:58:43;;;;;;;52.92;32.50;;;;;;;8.83;80.20;102339.16;5013690;28;20054;-60
2020/12/21 04:01:09;;;;;;;53.08;31.95;;;;;;;8.84;80.15;102333.03;5013530;28;20076;-60
2020/12/21 04:03:35;;;;;;;50.80;30.85;;;;;;;8.83;79.94;102333.94;5021743;28;20490;-60
2020/12/21 04:06:01;;;;;;;50.50;31.02;;;;;;;8.81;80.08;102326.13;5030033;28;20050;-60
2020/12/21 04:08:28;;;;;;;57.97;31.92;;;;;;;8.80;80.16;102326.16;5029559;28;20049;-61
2020/12/21 04:10:54;;;;;;;59.10;33.83;;;;;;;8.80;79.93;102332.25;5030053;28;20054;-60
2020/12/21 04:13:20;;;;;;;54.65;32.50;;;;;;;8.80;80.18;102332.25;5029863;28;20103;-60
2020/12/21 04:16:02;;;;;;;56.05;32.92;;;;;;;8.82;80.12;102327.84;5029655;28;20052;-60
2020/12/21 04:18:28;;;;;;;58.58;32.95;;;;;;;8.82;80.08;102327.84;5029771;28;20123;-60
2020/12/21 04:20:54;;;;;;;53.50;30.67;;;;;;;8.82;80.18;102327.84;5029275;28;20453;-60
2020/12/21 04:23:20;;;;;;;50.28;30.27;;;;;;;8.82;80.22;102329.59;5029849;28;20053;-60
2020/12/21 04:25:46;;;;;;;47.03;29.63;;;;;;;8.80;80.21;102326.16;5029586;28;20095;-60
2020/12/21 04:28:12;;;;;;;45.75;28.85;;;;;;;8.77;80.03;102321.88;5029274;28;20049;-60
2020/12/21 04:30:38;;;;;;;47.13;28.10;;;;;;;8.75;80.10;102318.41;5029571;28;20053;-60
2020/12/21 04:33:04;;;;;;;49.15;31.27;;;;;;;8.74;80.17;102323.69;5029784;28;20045;-60
2020/12/21 04:35:30;;;;;;;50.38;30.13;;;;;;;8.71;80.03;102327.25;5029703;28;20045;-60
2020/12/21 04:37:56;;;;;;;59.08;32.17;;;;;;;8.69;80.14;102326.41;5029236;28;20502;-60
2020/12/21 04:40:23;;;;;;;51.05;30.92;;;;;;;8.69;80.34;102322.94;5029200;28;20115;-60
2020/12/21 04:42:53;;;;;;;53.72;31.67;;;;;;;8.67;80.17;102322.94;5029228;28;20057;-60
2020/12/21 04:45:23;;;;;;;48.92;28.73;;;;;;;8.66;80.42;102336.97;5029135;28;20042;-63
2020/12/21 04:47:49;;;;;;;52.83;31.65;;;;;;;8.66;80.37;102329.94;5029309;28;20049;-62
2020/12/21 04:50:17;;;;;;;56.13;30.92;;;;;;;8.66;80.24;102337.81;5028873;28;20103;-63
2020/12/21 04:52:51;;;;;;;51.63;31.58;;;;;;;8.66;80.20;102347.41;5029231;28;20468;-63
2020/12/21 04:55:20;;;;;;;49.70;30.98;;;;;;;8.66;80.14;102347.41;5029265;28;20045;-63
2020/12/21 04:58:04;;;;;;;47.47;30.02;;;;;;;8.67;80.14;102349.13;5029126;28;20057;-63
2020/12/21 05:00:32;;;;;;;47.40;29.15;;;;;;;8.67;79.93;102349.13;5029144;28;20057;-63
2020/12/21 05:02:59;;;;;;;50.13;30.65;;;;;;;8.67;79.83;102343.88;5028940;28;20049;-63
2020/12/21 05:05:38;;;;;;;51.05;29.48;;;;;;;8.66;79.72;102343.03;5028750;28;20052;-63
2020/12/21 05:08:08;;;;;;;51.03;30.92;;;;;;;8.67;79.54;102349.13;5028622;28;20045;-63
2020/12/21 05:10:36;;;;;;;50.05;29.88;;;;;;;8.66;79.65;102343.03;5028917;28;20094;-63
2020/12/21 05:13:03;;;;;;;48.22;28.88;;;;;;;8.65;79.41;102337.84;5029023;28;20103;-62
2020/12/21 05:15:30;;;;;;;49.65;30.48;;;;;;;8.64;79.31;102339.59;5028973;28;20421;-62
2020/12/21 05:18:10;;;;;;;49.03;29.50;;;;;;;8.65;79.27;102324.75;5028461;28;20054;-62
2020/12/21 05:20:40;;;;;;;49.95;28.95;;;;;;;8.65;79.34;102316.91;5028858;28;20490;-63
2020/12/21 05:23:15;;;;;;;43.92;28.48;;;;;;;8.64;79.29;102316.03;5028600;28;20115;-63
2020/12/21 05:25:42;;;;;;;47.30;28.40;;;;;;;8.64;78.94;102323.88;5028834;28;20072;-63
2020/12/21 05:28:13;;;;;;;48.00;28.77;;;;;;;8.64;79.05;102325.66;5027381;28;20057;-63
2020/12/21 05:30:54;;;;;;;44.50;28.08;;;;;;;8.63;78.97;102334.38;5028773;28;20076;-63
2020/12/21 05:33:20;;;;;;;47.92;27.60;;;;;;;8.62;78.66;102336.16;5029920;28;20052;-62
2020/12/21 05:35:47;;;;;;;43.95;27.48;;;;;;;8.62;78.79;102338.78;5033049;28;20057;-62
2020/12/21 05:38:28;;;;;;;45.53;26.80;;;;;;;8.62;78.76;102346.63;5032602;28;20049;-62
2020/12/21 05:41:07;;;;;;;44.78;26.73;;;;;;;8.61;78.60;102351.91;5032566;28;20490;-62
2020/12/21 05:43:33;;;;;;;38.88;25.23;;;;;;;8.59;78.43;102353.69;5032636;28;20509;-62
2020/12/21 05:46:04;;;;;;;43.45;25.52;;;;;;;8.58;78.35;102365.91;5032652;28;20375;-61
2020/12/21 05:48:32;;;;;;;43.33;26.42;;;;;;;8.57;77.99;102356.34;5032594;28;20049;-62
2020/12/21 05:51:04;;;;;;;41.78;26.35;;;;;;;8.57;77.87;102364.19;5032396;28;20521;-62
2020/12/21 05:53:34;;;;;;;40.13;26.45;;;;;;;8.58;77.98;102363.28;5032532;28;20092;-63
2020/12/21 05:56:03;;;;;;;43.22;25.92;;;;;;;8.57;77.74;102364.19;5032382;28;20042;-61
2020/12/21 05:58:31;;;;;;;41.05;26.48;;;;;;;8.57;77.90;102377.28;5032334;28;20049;-61
2020/12/21 06:01:02;;;;;;;38.55;25.02;;;;;;;8.59;77.95;102383.31;5031982;28;20410;-62
2020/12/21 06:03:46;;;;;;;35.75;23.52;;;;;;;8.59;77.79;102383.31;5032348;28;20410;-61
2020/12/21 06:06:14;;;;;;;36.85;25.00;;;;;;;8.61;77.77;102375.44;5032069;28;20103;-61
2020/12/21 06:08:42;;;;;;;39.85;25.70;;;;;;;8.61;77.95;102373.69;5031883;28;20049;-62
2020/12/21 06:11:10;;;;;;;42.08;27.00;;;;;;;8.61;77.85;102384.16;5032079;28;20053;-62
2020/12/21 06:13:59;;;;;;;42.40;27.10;;;;;;;8.62;77.82;102390.22;5032047;28;20056;-61
2020/12/21 06:16:31;;;;;;;46.72;28.20;;;;;;;8.61;77.96;102386.75;5028057;28;20045;-62
2020/12/21 06:19:04;;;;;;;45.70;28.55;;;;;;;8.63;78.18;102392.84;5031778;28;20050;-61
2020/12/21 06:21:33;;;;;;;46.50;28.25;;;;;;;8.65;78.33;102395.41;5032167;28;20046;-61
2020/12/21 06:24:00;;;;;;;42.05;27.27;;;;;;;8.66;78.35;102386.69;5031770;28;20045;-62
2020/12/21 06:26:38;;;;;;;48.33;30.65;;;;;;;8.66;78.40;102384.91;5031669;28;20045;-61
2020/12/21 06:29:10;;;;;;;47.83;29.20;;;;;;;8.69;78.36;102390.97;5031905;28;20049;-62
2020/12/21 06:31:45;;;;;;;50.58;29.85;;;;;;;8.68;78.28;102387.47;5031861;28;20054;-61
2020/12/21 06:34:19;;;;;;;52.30;29.50;;;;;;;8.71;78.40;102397.03;5031495;28;20041;-62
2020/12/21 06:36:46;;;;;;;47.63;29.30;;;;;;;8.70;78.54;102398.78;5031460;28;20485;-61
2020/12/21 06:39:23;;;;;;;47.58;28.52;;;;;;;8.70;78.43;102397.91;5031309;28;20084;-62
2020/12/21 06:42:07;;;;;;;46.92;28.23;;;;;;;8.70;78.54;102397.91;5031384;28;20054;-62
2020/12/21 06:44:36;;;;;;;44.80;27.80;;;;;;;8.69;78.61;102399.69;5031720;28;20461;-62
2020/12/21 06:47:02;;;;;;;43.40;27.83;;;;;;;8.69;78.43;102406.69;5031465;28;20084;-62
2020/12/21 06:49:28;;;;;;;44.17;27.20;;;;;;;8.68;78.59;102405.81;5031579;28;20053;-61
2020/12/21 06:51:54;;;;;;;42.85;26.77;;;;;;;8.68;78.54;102403.19;5031649;28;20484;-61
2020/12/21 06:54:20;;;;;;;43.42;27.80;;;;;;;8.68;78.71;102408.41;5031328;28;20042;-61
2020/12/21 06:56:48;;;;;;;44.28;27.98;;;;;;;8.68;78.51;102408.41;5031044;28;20041;-61
2020/12/21 06:59:16;;;;;;;50.47;31.48;;;;;;;8.69;78.61;102402.28;5031125;28;20502;-61
2020/12/21 07:01:47;;;;;;;46.05;28.60;;;;;;;8.68;78.66;102405.81;5030986;28;20107;-61
2020/12/21 07:04:18;;;;;;;47.42;28.52;;;;;;;8.69;78.40;102409.31;5031167;28;20056;-62
2020/12/21 07:06:44;;;;;;;47.88;28.73;;;;;;;8.68;78.47;102418.88;5031339;28;20049;-62
2020/12/21 07:09:15;;;;;;;45.30;26.80;;;;;;;8.69;78.49;102423.22;5030821;28;20395;-62
2020/12/21 07:11:42;;;;;;;45.00;27.83;;;;;;;8.68;78.46;102413.66;5031242;28;20046;-62
2020/12/21 07:14:13;;;;;;;43.20;26.25;;;;;;;8.70;78.36;102416.22;5030984;28;20049;-62
2020/12/21 07:16:39;;;;;;;43.78;25.95;;;;;;;8.71;78.44;102424.06;5030872;28;20426;-62
2020/12/21 07:19:09;;;;;;;41.90;25.77;;;;;;;8.71;78.49;102418.84;5030699;28;20053;-62
2020/12/21 07:21:35;;;;;;;42.35;25.88;;;;;;;8.72;78.22;102427.53;5030682;28;20049;-62
2020/12/21 07:24:01;;;;;;;41.03;25.60;;;;;;;8.73;78.26;102431.88;5030743;28;20046;-61
2020/12/21 07:26:28;;;;;;;41.20;27.17;;;;;;;8.73;78.36;102450.22;5030968;28;20077;-62
2020/12/21 07:28:54;;;;;;;45.28;26.70;;;;;;;8.74;78.39;102454.56;5030969;28;20041;-62
2020/12/21 07:31:21;;;;;;;48.70;28.10;;;;;;;8.74;78.32;102459.78;5030744;28;20461;-62
2020/12/21 07:33:58;;;;;;;38.60;25.60;;;;;;;8.76;78.30;102463.22;5030442;28;20103;-62
2020/12/21 07:36:27;;;;;;;42.13;26.23;;;;;;;8.77;78.21;102470.19;5030341;28;20048;-62
2020/12/21 07:39:21;;;;;;;43.05;25.88;;;;;;;8.77;78.29;102467.56;5030202;28;20053;-62
2020/12/21 07:41:51;;;;;;;40.25;25.65;;;;;;;8.75;78.10;102464.97;5030573;28;20053;-62
2020/12/21 07:44:29;;;;;;;38.25;25.08;;;;;;;8.77;78.08;102444.00;5030347;28;20461;-61
2020/12/21 07:47:06;;;;;;;40.35;26.48;;;;;;;8.77;78.29;102431.78;5030401;28;20099;-61
2020/12/21 07:49:36;;;;;;;38.70;24.95;;;;;;;8.77;78.13;102423.94;5030594;28;20053;-62
2020/12/21 07:52:05;;;;;;;38.28;25.30;;;;;;;8.80;78.25;102439.56;5030180;28;20410;-61
2020/12/21 07:54:38;;;;;;;41.72;25.40;;;;;;;8.85;78.05;102449.06;5030192;28;20053;-62
2020/12/21 07:57:05;;;;;;;43.33;24.92;;;;;;;8.88;78.03;102447.25;5029760;28;20053;-61
2020/12/21 07:59:32;;;;;;;41.42;25.60;;;;;;;8.91;77.91;102451.56;5030177;28;20164;-62
2020/12/21 08:02:01;;;;;;;41.67;25.73;;;;;;;8.92;78.03;102445.44;5030085;28;20453;-62
2020/12/21 08:04:28;;;;;;;39.47;24.70;;;;;;;8.93;77.96;102449.78;5030284;28;20128;-61
2020/12/21 08:07:06;;;;;;;39.92;26.23;;;;;;;8.96;78.24;102449.69;5029846;28;20050;-62
2020/12/21 08:09:37;;;;;;;47.55;26.88;;;;;;;8.98;77.91;102454.00;5029878;28;20041;-61
2020/12/21 08:12:22;;;;;;;44.47;26.27;;;;;;;9.01;77.94;102447.84;5029829;28;20052;-60
2020/12/21 08:14:59;;;;;;;39.22;25.05;;;;;;;9.03;77.88;102453.03;5029840;28;20056;-60
2020/12/21 08:17:28;;;;;;;48.63;27.83;;;;;;;9.05;77.79;102440.78;5029709;28;20053;-60
2020/12/21 08:20:01;;;;;;;45.60;27.77;;;;;;;9.04;77.71;102442.53;5029360;28;20051;-61
2020/12/21 08:22:29;;;;;;;49.13;29.30;;;;;;;9.05;77.85;102439.00;5029669;28;20409;-61
2020/12/21 08:25:14;;;;;;;51.65;30.17;;;;;;;9.06;77.61;102443.34;5029621;28;20041;-60
2020/12/21 08:27:50;;;;;;;46.70;29.70;;;;;;;9.07;77.76;102450.31;5029476;28;20049;-61
2020/12/21 08:30:21;;;;;;;46.78;28.50;;;;;;;9.08;77.52;102457.28;5029578;28;20046;-60
2020/12/21 08:32:50;;;;;;;42.25;26.00;;;;;;;9.07;77.73;102452.94;5029444;28;20098;-61
2020/12/21 08:35:26;;;;;;;50.88;28.33;;;;;;;9.06;77.70;102451.22;5029531;28;20060;-60
2020/12/21 08:37:53;;;;;;;38.17;23.70;;;;;;;9.05;77.90;102465.19;5029430;28;20406;-61
2020/12/21 08:40:19;;;;;;;42.15;26.05;;;;;;;9.06;77.81;102474.78;5029180;28;20513;-61
2020/12/21 08:42:47;;;;;;;47.10;26.73;;;;;;;9.05;78.21;102472.19;5029493;28;20100;-64
2020/12/21 08:45:20;;;;;;;43.05;27.05;;;;;;;9.04;78.21;102471.34;5029488;28;20049;-63
2020/12/21 08:47:47;;;;;;;47.15;27.95;;;;;;;9.05;78.19;102474.81;5029096;28;20060;-63
2020/12/21 08:50:14;;;;;;;67.15;40.50;;;;;;;9.06;78.16;102481.78;5028882;28;20053;-63
2020/12/21 08:52:41;;;;;;;62.75;38.33;;;;;;;9.06;78.23;102494.88;5029111;28;20053;-62
2020/12/21 08:55:07;;;;;;;62.38;37.95;;;;;;;9.07;78.21;102489.59;5029254;28;20061;-62
2020/12/21 08:57:34;;;;;;;45.65;28.90;;;;;;;9.07;77.98;102501.84;5028908;28;20053;-62
2020/12/21 09:00:00;;;;;;;50.30;32.10;;;;;;;9.09;78.01;102492.19;5029410;28;20061;-62
2020/12/21 09:02:26;;;;;;;50.05;29.92;;;;;;;9.12;78.10;102505.22;5029426;28;20049;-62
2020/12/21 09:04:52;;;;;;;50.10;27.98;;;;;;;9.15;78.28;102505.13;5028673;28;20162;-62
2020/12/21 09:07:33;;;;;;;51.60;28.15;;;;;;;9.18;78.09;102517.31;5028132;28;20041;-62
2020/12/21 09:10:00;;;;;;;53.35;32.30;;;;;;;9.19;77.98;102509.41;5028904;28;20049;-62
2020/12/21 09:12:26;;;;;;;92.95;53.05;;;;;;;9.21;78.21;102507.63;5028876;28;20055;-62
2020/12/21 09:14:52;;;;;;;49.10;29.83;;;;;;;9.24;78.16;102509.31;5029074;28;20498;-62
2020/12/21 09:17:18;;;;;;;46.20;27.42;;;;;;;9.25;78.04;102509.28;5028781;28;20442;-62
2020/12/21 09:19:44;;;;;;;45.40;26.15;;;;;;;9.28;77.98;102501.38;5028618;28;20072;-62
2020/12/21 09:22:10;;;;;;;44.03;26.75;;;;;;;9.30;77.77;102496.94;5028557;28;20103;-62
2020/12/21 09:24:36;;;;;;;43.53;27.65;;;;;;;9.31;77.63;102498.66;5028802;28;20099;-62
2020/12/21 09:27:03;;;;;;;42.45;26.50;;;;;;;9.34;77.48;102486.41;5028450;28;20046;-62
2020/12/21 09:29:29;;;;;;;45.42;28.15;;;;;;;9.37;77.41;102481.06;5029025;28;20049;-61
2020/12/21 09:31:55;;;;;;;43.28;26.52;;;;;;;9.39;77.29;102479.28;5028676;28;20103;-62
2020/12/21 09:34:21;;;;;;;42.90;25.63;;;;;;;9.42;77.10;102474.84;5028587;28;20045;-62
2020/12/21 09:36:47;;;;;;;48.78;30.27;;;;;;;9.48;77.17;102473.81;5028763;28;20041;-62
2020/12/21 09:39:13;;;;;;;49.10;28.50;;;;;;;9.58;76.95;102470.06;5028345;28;20053;-61
2020/12/21 09:41:39;;;;;;;48.78;28.02;;;;;;;9.64;76.75;102469.94;5028682;28;20253;-62
2020/12/21 09:44:06;;;;;;;44.53;27.48;;;;;;;9.70;76.83;102466.31;5028796;28;20100;-62
2020/12/21 09:46:32;;;;;;;38.78;25.20;;;;;;;9.72;76.91;102459.25;5028617;28;20052;-62
2020/12/21 09:49:03;;;;;;;37.10;24.77;;;;;;;9.73;76.76;102470.63;5028451;28;20042;-62
2020/12/21 09:51:30;;;;;;;43.72;26.75;;;;;;;9.72;76.66;102468.88;5028337;28;20486;-62
2020/12/21 09:53:56;;;;;;;42.80;27.40;;;;;;;9.72;76.76;102474.97;5028331;28;20049;-62
2020/12/21 09:56:22;;;;;;;42.05;27.17;;;;;;;9.71;76.30;102478.50;5028297;28;20045;-62
2020/12/21 09:58:48;;;;;;;44.58;27.60;;;;;;;9.70;76.55;102470.66;5028360;28;20049;-62
2020/12/21 10:01:14;;;;;;;46.33;28.83;;;;;;;9.68;76.46;102469.88;5028123;28;20056;-62
2020/12/21 10:03:42;;;;;;;43.10;27.00;;;;;;;9.66;76.39;102462.00;5028461;28;20465;-60
2020/12/21 10:06:09;;;;;;;45.75;28.77;;;;;;;9.64;76.21;102455.97;5028222;28;20049;-62
2020/12/21 10:08:37;;;;;;;46.85;29.88;;;;;;;9.64;76.45;102462.06;5028440;28;20202;-62
2020/12/21 10:11:04;;;;;;;45.63;28.48;;;;;;;9.63;76.70;102455.09;5028073;28;20084;-63
2020/12/21 10:13:31;;;;;;;44.67;27.90;;;;;;;9.64;76.64;102456.81;5028789;28;20054;-60
2020/12/21 10:15:57;;;;;;;41.35;26.67;;;;;;;9.68;76.70;102454.13;5028492;28;20045;-60
2020/12/21 10:18:23;;;;;;;40.25;26.27;;;;;;;9.69;76.68;102451.47;5028331;28;20095;-60
2020/12/21 10:20:49;;;;;;;42.00;28.25;;;;;;;9.71;76.61;102441.78;5031674;28;20053;-61
2020/12/21 10:23:15;;;;;;;38.17;25.20;;;;;;;9.74;76.68;102444.34;5031932;28;20048;-63
2020/12/21 10:25:42;;;;;;;37.15;25.00;;;;;;;9.78;76.37;102437.28;5031891;28;20049;-61
2020/12/21 10:28:08;;;;;;;36.92;24.40;;;;;;;9.82;76.34;102435.44;5031746;28;20046;-62
2020/12/21 10:30:35;;;;;;;37.25;24.38;;;;;;;9.86;76.21;102431.81;5031667;28;20045;-62
2020/12/21 10:33:01;;;;;;;35.97;24.15;;;;;;;9.91;76.07;102433.41;5031832;28;20045;-61
2020/12/21 10:35:28;;;;;;;36.53;24.45;;;;;;;9.95;75.84;102442.06;5031945;28;20486;-61
2020/12/21 10:37:54;;;;;;;37.97;24.40;;;;;;;9.98;75.67;102434.13;5031709;28;20563;-61
2020/12/21 10:40:21;;;;;;;36.97;25.00;;;;;;;10.01;75.72;102430.56;5031328;28;20049;-62
2020/12/21 10:42:47;;;;;;;39.92;26.08;;;;;;;10.02;75.65;102433.13;5031595;28;20053;-61
2020/12/21 10:45:13;;;;;;;31.83;22.90;;;;;;;10.02;75.53;102425.25;5031723;28;20103;-63
2020/12/21 10:47:39;;;;;;;34.60;23.23;;;;;;;10.04;75.53;102423.44;5031477;28;20042;-64
2020/12/21 10:50:05;;;;;;;34.25;23.75;;;;;;;10.06;75.42;102420.81;5031085;28;20398;-64
2020/12/21 10:52:31;;;;;;;38.47;27.63;;;;;;;10.05;74.89;102421.69;5031686;28;20053;-61
2020/12/21 10:54:57;;;;;;;36.63;25.73;;;;;;;10.03;75.06;102420.88;5031403;28;20049;-61
2020/12/21 10:57:23;;;;;;;40.13;27.65;;;;;;;10.02;75.11;102424.38;5031562;28;20053;-62
2020/12/21 10:59:49;;;;;;;39.63;25.80;;;;;;;10.04;75.17;102420.81;5031151;28;20501;-62
2020/12/21 11:02:15;;;;;;;35.63;24.45;;;;;;;10.05;75.05;102424.31;5031343;28;20084;-62
2020/12/21 11:04:41;;;;;;;38.63;26.20;;;;;;;10.05;74.97;102433.03;5031118;28;20485;-62
2020/12/21 11:07:07;;;;;;;36.63;24.92;;;;;;;10.05;75.08;102419.91;5031017;28;20456;-62
2020/12/21 11:09:33;;;;;;;38.55;25.92;;;;;;;10.06;75.05;102426.91;5030987;28;20049;-62
2020/12/21 11:11:59;;;;;;;44.90;29.73;;;;;;;10.05;74.98;102425.16;5030956;28;20049;-62
2020/12/21 11:14:25;;;;;;;38.67;24.52;;;;;;;10.05;74.90;102429.56;5031110;28;20045;-62
2020/12/21 11:16:52;;;;;;;36.10;24.05;;;;;;;10.07;74.86;102420.75;5030712;28;20049;-62
2020/12/21 11:19:18;;;;;;;36.40;24.92;;;;;;;10.10;74.86;102420.66;5030799;28;20394;-62
2020/12/21 11:21:44;;;;;;;38.75;25.90;;;;;;;10.13;74.65;102425.84;5030831;28;20056;-62